createdAt,value
2018-11-14T00:01:21.562Z,9.30
2018-11-14T00:03:55.194Z,9.30
2018-11-14T00:06:28.858Z,9.30
2018-11-14T00:09:02.292Z,9.30
2018-11-14T00:11:35.784Z,9.30
2018-11-14T00:14:09.704Z,9.30
2018-11-14T00:16:43.230Z,9.30
2018-11-14T00:19:16.797Z,9.30
2018-11-14T00:21:50.836Z,9.30
2018-11-14T00:24:24.496Z,9.30
2018-11-14T00:26:57.994Z,9.40
2018-11-14T00:29:31.719Z,9.30
2018-11-14T00:32:05.204Z,9.30
2018-11-14T00:34:38.921Z,9.40
2018-11-14T00:37:12.557Z,9.30
2018-11-14T00:39:45.918Z,9.20
2018-11-14T00:42:19.417Z,9.20
2018-11-14T00:44:52.868Z,9.20
2018-11-14T00:47:26.425Z,9.10
2018-11-14T00:50:00.036Z,9.10
2018-11-14T00:52:33.552Z,9.10
2018-11-14T00:55:08.934Z,9.00
2018-11-14T00:57:43.860Z,9.10
2018-11-14T01:00:18.972Z,9.10
2018-11-14T01:02:52.637Z,9.00
2018-11-14T01:05:27.066Z,9.00
2018-11-14T01:08:00.548Z,8.90
2018-11-14T01:10:34.153Z,8.90
2018-11-14T01:13:07.563Z,8.90
2018-11-14T01:15:41.099Z,8.90
2018-11-14T01:18:14.815Z,8.90
2018-11-14T01:20:48.178Z,8.90
2018-11-14T01:23:21.636Z,8.90
2018-11-14T01:25:55.240Z,8.80
2018-11-14T01:28:28.780Z,8.80
2018-11-14T01:31:02.444Z,8.80
2018-11-14T01:33:35.921Z,8.80
2018-11-14T01:36:09.426Z,8.80
2018-11-14T01:38:43.245Z,8.80
2018-11-14T01:41:16.622Z,8.80
2018-11-14T01:43:50.158Z,8.80
2018-11-14T01:46:23.678Z,8.80
2018-11-14T01:48:57.264Z,8.80
2018-11-14T01:51:30.770Z,8.80
2018-11-14T01:54:04.683Z,8.80
2018-11-14T01:56:38.065Z,8.70
2018-11-14T01:59:11.795Z,8.70
2018-11-14T02:01:45.295Z,8.70
2018-11-14T02:04:18.620Z,8.70
2018-11-14T02:06:51.966Z,8.70
2018-11-14T02:09:25.583Z,8.70
2018-11-14T02:11:59.186Z,8.60
2018-11-14T02:14:32.763Z,8.60
2018-11-14T02:17:06.232Z,8.60
2018-11-14T02:19:39.628Z,8.60
2018-11-14T02:22:13.256Z,8.50
2018-11-14T02:24:46.711Z,8.50
2018-11-14T02:27:20.125Z,8.40
2018-11-14T02:29:53.631Z,8.40
2018-11-14T02:32:27.072Z,8.40
2018-11-14T02:35:00.637Z,8.40
2018-11-14T02:37:34.128Z,8.30
2018-11-14T02:40:09.482Z,8.30
2018-11-14T02:42:42.997Z,8.30
2018-11-14T02:45:16.525Z,8.30
2018-11-14T02:47:50.181Z,8.20
2018-11-14T02:50:23.635Z,8.20
2018-11-14T02:52:57.002Z,8.20
2018-11-14T02:55:30.532Z,8.20
2018-11-14T02:58:04.638Z,8.20
2018-11-14T03:00:38.107Z,8.10
2018-11-14T03:03:11.711Z,8.10
2018-11-14T03:05:45.205Z,8.10
2018-11-14T03:08:18.604Z,8.00
2018-11-14T03:10:52.110Z,8.00
2018-11-14T03:13:25.668Z,8.00
2018-11-14T03:15:59.339Z,8.00
2018-11-14T03:18:33.120Z,8.00
2018-11-14T03:21:06.478Z,8.00
2018-11-14T03:23:40.089Z,8.10
2018-11-14T03:26:13.526Z,8.00
2018-11-14T03:28:46.817Z,8.10
2018-11-14T03:31:20.320Z,8.00
2018-11-14T03:33:53.657Z,8.00
2018-11-14T03:36:27.359Z,8.20
2018-11-14T03:39:00.811Z,8.20
2018-11-14T03:41:34.438Z,8.20
2018-11-14T03:44:07.804Z,8.10
2018-11-14T03:46:41.283Z,8.20
2018-11-14T03:49:14.767Z,8.20
2018-11-14T03:51:48.503Z,8.10
2018-11-14T03:54:21.982Z,8.20
2018-11-14T03:56:55.397Z,8.10
2018-11-14T03:59:28.895Z,8.20
2018-11-14T04:02:02.659Z,8.20
2018-11-14T04:04:36.183Z,8.20
2018-11-14T04:07:09.727Z,8.10
2018-11-14T04:09:43.520Z,8.10
2018-11-14T04:12:17.172Z,8.10
2018-11-14T04:14:50.980Z,8.00
2018-11-14T04:17:24.490Z,8.00
2018-11-14T04:19:58.662Z,8.00
2018-11-14T04:22:32.054Z,8.10
2018-11-14T04:25:07.244Z,8.10
2018-11-14T04:27:41.570Z,8.00
2018-11-14T04:30:19.292Z,8.10
2018-11-14T04:32:52.830Z,8.20
2018-11-14T04:35:26.215Z,8.20
2018-11-14T04:37:59.662Z,8.10
2018-11-14T04:40:33.318Z,8.20
2018-11-14T04:43:06.778Z,8.20
2018-11-14T04:45:40.140Z,8.20
2018-11-14T04:48:13.819Z,8.20
2018-11-14T04:50:47.516Z,8.20
2018-11-14T04:53:21.050Z,8.30
2018-11-14T04:55:54.650Z,8.40
2018-11-14T04:58:28.092Z,8.40
2018-11-14T05:01:01.667Z,8.30
2018-11-14T05:03:35.219Z,8.30
2018-11-14T05:06:08.643Z,8.40
2018-11-14T05:08:42.027Z,8.50
2018-11-14T05:11:15.595Z,8.40
2018-11-14T05:13:49.029Z,8.30
2018-11-14T05:16:23.129Z,8.30
2018-11-14T05:18:56.555Z,8.30
2018-11-14T05:21:30.095Z,8.30
2018-11-14T05:24:03.716Z,8.30
2018-11-14T05:26:37.091Z,8.40
2018-11-14T05:29:10.438Z,8.40
2018-11-14T05:31:44.105Z,8.50
2018-11-14T05:34:17.831Z,8.40
2018-11-14T05:36:51.292Z,8.40
2018-11-14T05:39:24.713Z,8.40
2018-11-14T05:41:58.376Z,8.30
2018-11-14T05:44:31.847Z,8.40
2018-11-14T05:47:05.699Z,8.50
2018-11-14T05:49:39.230Z,8.60
2018-11-14T05:52:12.907Z,8.60
2018-11-14T05:54:46.247Z,8.50
2018-11-14T05:57:19.725Z,8.60
2018-11-14T05:59:53.234Z,8.60
2018-11-14T06:02:26.775Z,8.50
2018-11-14T06:05:00.367Z,8.50
2018-11-14T06:07:33.926Z,8.50
2018-11-14T06:10:08.815Z,8.40
2018-11-14T06:12:42.872Z,8.40
2018-11-14T06:15:17.835Z,8.40
2018-11-14T06:17:53.365Z,8.40
2018-11-14T06:20:26.944Z,8.50
2018-11-14T06:23:00.537Z,8.50
2018-11-14T06:25:36.366Z,8.50
2018-11-14T06:28:10.554Z,8.50
2018-11-14T06:30:43.923Z,8.50
2018-11-14T06:33:17.604Z,8.40
2018-11-14T06:35:51.263Z,8.40
2018-11-14T06:38:24.825Z,8.40
2018-11-14T06:40:58.229Z,8.40
2018-11-14T06:43:32.489Z,8.40
2018-11-14T06:46:06.051Z,8.30
2018-11-14T06:48:40.179Z,8.30
2018-11-14T06:51:13.666Z,8.30
2018-11-14T06:53:47.152Z,8.40
2018-11-14T06:56:20.663Z,8.40
2018-11-14T06:58:54.406Z,8.30
2018-11-14T07:01:27.842Z,8.40
2018-11-14T07:04:01.337Z,8.40
2018-11-14T07:06:34.823Z,8.40
2018-11-14T07:09:09.328Z,8.50
2018-11-14T07:11:42.744Z,8.50
2018-11-14T07:14:16.296Z,8.50
2018-11-14T07:16:49.682Z,8.50
2018-11-14T07:19:23.696Z,8.50
2018-11-14T07:21:57.304Z,8.50
2018-11-14T07:24:30.849Z,8.50
2018-11-14T07:27:04.637Z,8.50
2018-11-14T07:29:38.033Z,8.60
2018-11-14T07:32:11.596Z,8.70
2018-11-14T07:34:45.125Z,8.60
2018-11-14T07:37:18.443Z,8.70
2018-11-14T07:39:51.991Z,8.60
2018-11-14T07:42:25.722Z,8.50
2018-11-14T07:45:08.294Z,8.60
2018-11-14T07:47:42.068Z,8.50
2018-11-14T07:50:15.706Z,8.60
2018-11-14T07:52:49.306Z,8.60
2018-11-14T07:55:22.940Z,8.60
2018-11-14T07:57:56.626Z,8.50
2018-11-14T08:00:30.036Z,8.50
2018-11-14T08:03:03.418Z,8.60
2018-11-14T08:05:36.918Z,8.60
2018-11-14T08:08:10.517Z,8.50
2018-11-14T08:10:44.185Z,8.70
2018-11-14T08:13:20.110Z,8.70
2018-11-14T08:15:55.392Z,8.70
2018-11-14T08:18:28.967Z,8.60
2018-11-14T08:21:03.035Z,8.70
2018-11-14T08:23:36.503Z,8.70
2018-11-14T08:26:10.286Z,8.70
2018-11-14T08:28:43.631Z,8.80
2018-11-14T08:31:17.380Z,8.80
2018-11-14T08:33:51.033Z,8.90
2018-11-14T08:36:24.613Z,8.90
2018-11-14T08:38:58.131Z,8.90
2018-11-14T08:41:31.738Z,8.90
2018-11-14T08:44:05.469Z,8.90
2018-11-14T08:46:38.899Z,8.90
2018-11-14T08:49:12.492Z,9.00
2018-11-14T08:51:46.032Z,9.00
2018-11-14T08:54:19.450Z,9.00
2018-11-14T08:56:53.133Z,9.10
2018-11-14T08:59:26.614Z,9.20
2018-11-14T09:02:00.343Z,9.20
2018-11-14T09:04:34.034Z,9.40
2018-11-14T09:07:07.755Z,9.40
2018-11-14T09:09:41.455Z,9.30
2018-11-14T09:12:14.997Z,9.30
2018-11-14T09:14:48.540Z,9.30
2018-11-14T09:17:22.035Z,9.30
2018-11-14T09:19:55.428Z,9.30
2018-11-14T09:22:28.999Z,9.30
2018-11-14T09:25:02.465Z,9.20
2018-11-14T09:27:35.966Z,9.20
2018-11-14T09:30:12.044Z,9.30
2018-11-14T09:32:45.504Z,9.30
2018-11-14T09:35:20.129Z,9.40
2018-11-14T09:37:54.725Z,9.60
2018-11-14T09:40:28.869Z,9.50
2018-11-14T09:43:02.569Z,9.60
2018-11-14T09:45:36.312Z,9.60
2018-11-14T09:48:09.807Z,9.60
2018-11-14T09:50:43.276Z,9.70
2018-11-14T09:53:16.981Z,9.60
2018-11-14T09:55:50.390Z,9.60
2018-11-14T09:58:23.756Z,9.70
2018-11-14T10:00:57.333Z,9.60
2018-11-14T10:03:30.904Z,9.50
2018-11-14T10:06:05.165Z,9.60
2018-11-14T10:08:38.879Z,9.80
2018-11-14T10:11:12.416Z,9.70
2018-11-14T10:13:45.979Z,9.70
2018-11-14T10:16:19.487Z,9.80
2018-11-14T10:18:53.116Z,9.80
2018-11-14T10:21:26.792Z,9.90
2018-11-14T10:24:00.416Z,10.00
2018-11-14T10:26:34.045Z,10.20
2018-11-14T10:29:07.393Z,10.30
2018-11-14T10:31:40.883Z,10.30
2018-11-14T10:34:14.512Z,10.60
2018-11-14T10:36:48.008Z,10.50
2018-11-14T10:39:21.476Z,10.60
2018-11-14T10:41:54.938Z,10.60
2018-11-14T10:44:28.554Z,10.70
2018-11-14T10:47:02.101Z,10.70
2018-11-14T10:49:35.706Z,10.80
2018-11-14T10:52:09.071Z,10.80
2018-11-14T10:54:43.345Z,10.90
2018-11-14T10:57:16.747Z,10.80
2018-11-14T10:59:50.240Z,10.80
2018-11-14T11:02:29.394Z,10.70
2018-11-14T11:05:08.643Z,10.70
2018-11-14T11:07:47.962Z,10.70
2018-11-14T11:10:27.447Z,10.60
2018-11-14T11:13:06.833Z,10.60
2018-11-14T11:15:46.086Z,10.70
2018-11-14T11:18:23.566Z,10.70
2018-11-14T11:20:57.204Z,10.60
2018-11-14T11:23:30.739Z,10.60
2018-11-14T11:26:03.983Z,10.60
2018-11-14T11:28:37.644Z,10.60
2018-11-14T11:31:11.388Z,10.70
2018-11-14T11:33:44.992Z,10.80
2018-11-14T11:36:18.848Z,10.70
2018-11-14T11:38:52.640Z,10.80
2018-11-14T11:41:26.580Z,10.70
2018-11-14T11:44:00.084Z,10.70
2018-11-14T11:46:33.708Z,10.80
2018-11-14T11:49:07.314Z,10.80
2018-11-14T11:51:41.011Z,10.80
2018-11-14T11:54:14.542Z,10.80
2018-11-14T11:56:48.086Z,10.80
2018-11-14T11:59:21.693Z,10.90
2018-11-14T12:02:02.440Z,10.90
2018-11-14T12:04:36.032Z,11.00
2018-11-14T12:07:09.544Z,11.00
2018-11-14T12:09:43.260Z,11.00
2018-11-14T12:12:16.813Z,11.10
2018-11-14T12:14:50.157Z,11.20
2018-11-14T12:17:23.736Z,11.20
2018-11-14T12:19:57.846Z,11.20
2018-11-14T12:22:31.287Z,11.20
2018-11-14T12:25:06.308Z,11.20
2018-11-14T12:27:46.401Z,11.20
2018-11-14T12:30:19.940Z,11.30
2018-11-14T12:32:53.149Z,11.30
2018-11-14T12:35:26.876Z,11.40
2018-11-14T12:38:00.355Z,11.40
2018-11-14T12:40:33.927Z,11.40
2018-11-14T12:43:07.615Z,11.40
2018-11-14T12:45:41.221Z,11.50
2018-11-14T12:48:14.716Z,11.50
2018-11-14T12:50:48.320Z,11.50
2018-11-14T12:53:21.901Z,11.40
2018-11-14T12:55:55.581Z,11.40
2018-11-14T12:58:28.987Z,11.40
2018-11-14T13:01:02.421Z,11.40
2018-11-14T13:03:35.851Z,11.40
2018-11-14T13:06:09.331Z,11.30
2018-11-14T13:08:42.847Z,11.30
2018-11-14T13:11:16.487Z,11.30
2018-11-14T13:13:49.974Z,11.30
2018-11-14T13:16:23.508Z,11.40
2018-11-14T13:18:57.046Z,11.40
2018-11-14T13:21:30.545Z,11.40
2018-11-14T13:24:04.324Z,11.30
2018-11-14T13:26:37.743Z,11.40
2018-11-14T13:29:11.267Z,11.40
2018-11-14T13:31:44.801Z,11.40
2018-11-14T13:34:18.570Z,11.40
2018-11-14T13:36:52.078Z,11.40
2018-11-14T13:39:25.462Z,11.40
2018-11-14T13:41:59.131Z,11.40
2018-11-14T13:44:32.627Z,11.40
2018-11-14T13:47:06.292Z,11.40
2018-11-14T13:49:39.858Z,11.40
2018-11-14T13:52:13.359Z,11.40
2018-11-14T13:54:46.889Z,11.40
2018-11-14T13:57:20.459Z,11.50
2018-11-14T13:59:53.743Z,11.40
2018-11-14T14:02:27.299Z,11.40
2018-11-14T14:05:00.776Z,11.40
2018-11-14T14:07:34.331Z,11.40
2018-11-14T14:10:09.291Z,11.60
2018-11-14T14:12:43.916Z,11.60
2018-11-14T14:15:19.687Z,11.60
2018-11-14T14:17:53.459Z,11.50
2018-11-14T14:20:26.923Z,11.50
2018-11-14T14:23:01.401Z,11.40
2018-11-14T14:25:35.099Z,11.50
2018-11-14T14:28:08.677Z,11.50
2018-11-14T14:30:42.532Z,11.50
2018-11-14T14:33:15.934Z,11.50
2018-11-14T14:35:49.373Z,11.40
2018-11-14T14:38:22.959Z,11.30
2018-11-14T14:40:56.783Z,11.30
2018-11-14T14:43:30.456Z,11.30
2018-11-14T14:46:03.901Z,11.20
2018-11-14T14:48:37.363Z,11.30
2018-11-14T14:51:10.986Z,11.30
2018-11-14T14:53:44.622Z,11.30
2018-11-14T14:56:18.456Z,11.20
2018-11-14T14:58:51.963Z,11.20
2018-11-14T15:01:25.348Z,11.20
2018-11-14T15:03:58.887Z,11.10
2018-11-14T15:06:32.406Z,11.10
2018-11-14T15:09:08.139Z,11.00
2018-11-14T15:11:41.776Z,11.00
2018-11-14T15:14:15.382Z,11.10
2018-11-14T15:16:48.929Z,11.00
2018-11-14T15:19:22.652Z,11.00
2018-11-14T15:21:56.175Z,11.00
2018-11-14T15:24:29.938Z,10.90
2018-11-14T15:27:03.798Z,10.90
2018-11-14T15:29:37.395Z,10.90
2018-11-14T15:32:10.754Z,10.90
2018-11-14T15:34:44.434Z,10.90
2018-11-14T15:37:17.954Z,10.80
2018-11-14T15:39:51.326Z,10.80
2018-11-14T15:42:25.452Z,10.80
2018-11-14T15:44:59.041Z,10.80
2018-11-14T15:47:32.396Z,10.70
2018-11-14T15:50:10.265Z,10.70
2018-11-14T15:52:44.892Z,10.70
2018-11-14T15:55:19.277Z,10.70
2018-11-14T15:57:52.917Z,10.70
2018-11-14T16:00:27.713Z,10.70
2018-11-14T16:03:01.340Z,10.80
2018-11-14T16:05:35.101Z,10.80
2018-11-14T16:08:08.432Z,10.80
2018-11-14T16:10:41.836Z,10.80
2018-11-14T16:13:15.403Z,10.80
2018-11-14T16:15:48.903Z,10.80
2018-11-14T16:18:22.503Z,10.80
2018-11-14T16:20:56.067Z,10.80
2018-11-14T16:23:29.827Z,10.80
2018-11-14T16:26:03.501Z,10.80
2018-11-14T16:28:37.108Z,10.80
2018-11-14T16:31:10.665Z,10.80
2018-11-14T16:33:44.400Z,10.70
2018-11-14T16:36:17.882Z,10.70
2018-11-14T16:38:51.209Z,10.70
2018-11-14T16:41:24.816Z,10.70
2018-11-14T16:43:58.318Z,10.70
2018-11-14T16:46:32.178Z,10.70
2018-11-14T16:49:05.786Z,10.70
2018-11-14T16:51:39.119Z,10.70
2018-11-14T16:54:12.677Z,10.70
2018-11-14T16:56:46.560Z,10.70
2018-11-14T16:59:20.096Z,10.70
2018-11-14T17:01:53.591Z,10.70
2018-11-14T17:04:26.954Z,10.70
2018-11-14T17:07:00.758Z,10.70
2018-11-14T17:09:34.394Z,10.70
2018-11-14T17:12:07.756Z,10.70
2018-11-14T17:14:41.187Z,10.80
2018-11-14T17:17:14.609Z,10.70
2018-11-14T17:19:48.029Z,10.70
2018-11-14T17:22:21.591Z,10.70
2018-11-14T17:24:55.175Z,10.70
2018-11-14T17:27:28.877Z,10.70
2018-11-14T17:30:02.807Z,10.70
2018-11-14T17:32:36.336Z,10.70
2018-11-14T17:35:10.756Z,10.70
2018-11-14T17:37:44.634Z,10.70
2018-11-14T17:40:23.409Z,10.60
2018-11-14T17:42:57.215Z,10.70
2018-11-14T17:45:31.107Z,10.70
2018-11-14T17:48:04.709Z,10.70
2018-11-14T17:50:38.202Z,10.70
2018-11-14T17:53:11.702Z,10.70
2018-11-14T17:55:45.300Z,10.70
2018-11-14T17:58:18.877Z,10.70
2018-11-14T18:00:52.305Z,10.90
2018-11-14T18:03:25.904Z,10.90
2018-11-14T18:05:59.578Z,11.00
2018-11-14T18:08:33.237Z,10.90
2018-11-14T18:11:06.980Z,10.80
2018-11-14T18:13:40.619Z,10.80
2018-11-14T18:16:14.250Z,10.80
2018-11-14T18:18:47.766Z,10.80
2018-11-14T18:21:21.345Z,10.70
2018-11-14T18:23:54.839Z,10.70
2018-11-14T18:26:28.311Z,10.80
2018-11-14T18:29:01.731Z,10.70
2018-11-14T18:31:35.292Z,10.70
2018-11-14T18:34:08.944Z,10.70
2018-11-14T18:36:42.616Z,10.70
2018-11-14T18:39:16.252Z,10.60
2018-11-14T18:41:49.819Z,10.60
2018-11-14T18:44:23.482Z,10.60
2018-11-14T18:46:56.940Z,10.60
2018-11-14T18:49:30.431Z,10.50
2018-11-14T18:52:04.380Z,10.50
2018-11-14T18:54:38.614Z,10.50
2018-11-14T18:57:12.161Z,10.50
2018-11-14T18:59:45.733Z,10.40
2018-11-14T19:02:19.147Z,10.40
2018-11-14T19:04:52.860Z,10.40
2018-11-14T19:07:26.476Z,10.40
2018-11-14T19:10:00.280Z,10.30
2018-11-14T19:12:33.934Z,10.30
2018-11-14T19:15:09.636Z,10.20
2018-11-14T19:17:43.134Z,10.20
2018-11-14T19:20:18.871Z,10.20
2018-11-14T19:22:52.965Z,10.10
2018-11-14T19:25:28.103Z,10.10
2018-11-14T19:28:01.476Z,10.00
2018-11-14T19:30:36.454Z,10.10
2018-11-14T19:33:09.925Z,10.10
2018-11-14T19:35:43.750Z,10.00
2018-11-14T19:38:17.197Z,10.00
2018-11-14T19:40:51.375Z,10.00
2018-11-14T19:43:24.908Z,10.00
2018-11-14T19:45:58.516Z,10.00
2018-11-14T19:48:32.178Z,10.00
2018-11-14T19:51:05.894Z,10.00
2018-11-14T19:53:39.398Z,10.00
2018-11-14T19:56:12.949Z,10.00
2018-11-14T19:58:46.542Z,10.10
2018-11-14T20:01:20.138Z,10.00
2018-11-14T20:03:53.879Z,10.00
2018-11-14T20:06:28.015Z,9.90
2018-11-14T20:09:01.581Z,9.90
2018-11-14T20:11:35.160Z,9.90
2018-11-14T20:14:08.688Z,9.90
2018-11-14T20:16:42.387Z,9.90
2018-11-14T20:19:15.891Z,9.90
2018-11-14T20:21:49.681Z,9.80
2018-11-14T20:24:23.338Z,9.80
2018-11-14T20:26:56.901Z,9.70
2018-11-14T20:29:30.267Z,9.70
2018-11-14T20:32:04.069Z,9.70
2018-11-14T20:34:37.420Z,9.70
2018-11-14T20:37:11.029Z,9.60
2018-11-14T20:39:44.524Z,9.50
2018-11-14T20:42:18.171Z,9.60
2018-11-14T20:44:51.760Z,9.50
2018-11-14T20:47:25.479Z,9.50
2018-11-14T20:49:59.018Z,9.50
2018-11-14T20:52:32.420Z,9.50
2018-11-14T20:55:07.560Z,9.50
2018-11-14T20:57:41.645Z,9.50
2018-11-14T21:00:24.439Z,9.50
2018-11-14T21:02:58.206Z,9.50
2018-11-14T21:05:32.287Z,9.40
2018-11-14T21:08:05.911Z,9.40
2018-11-14T21:10:39.463Z,9.40
2018-11-14T21:13:13.057Z,9.30
2018-11-14T21:15:46.659Z,9.30
2018-11-14T21:18:20.244Z,9.30
2018-11-14T21:20:53.723Z,9.20
2018-11-14T21:23:27.377Z,9.20
2018-11-14T21:26:00.831Z,9.20
2018-11-14T21:28:34.193Z,9.20
2018-11-14T21:31:07.759Z,9.10
2018-11-14T21:33:41.159Z,9.10
2018-11-14T21:36:14.726Z,9.10
2018-11-14T21:38:48.572Z,9.10
2018-11-14T21:41:22.021Z,9.10
2018-11-14T21:43:55.486Z,9.10
2018-11-14T21:46:29.048Z,9.20
2018-11-14T21:49:05.309Z,9.10
2018-11-14T21:51:38.758Z,9.10
2018-11-14T21:54:12.329Z,9.00
2018-11-14T21:56:45.923Z,9.00
2018-11-14T21:59:19.372Z,9.00
2018-11-14T22:01:52.681Z,9.00
2018-11-14T22:04:26.042Z,9.00
2018-11-14T22:06:59.680Z,9.00
2018-11-14T22:09:33.220Z,8.90
2018-11-14T22:12:06.747Z,8.90
2018-11-14T22:14:40.283Z,8.90
2018-11-14T22:17:13.745Z,8.90
2018-11-14T22:19:47.315Z,8.90
2018-11-14T22:22:20.743Z,8.90
2018-11-14T22:24:54.197Z,8.90
2018-11-14T22:27:28.071Z,8.90
2018-11-14T22:30:01.760Z,8.90
2018-11-14T22:32:35.266Z,9.10
2018-11-14T22:35:10.463Z,9.10
2018-11-14T22:37:43.988Z,9.10
2018-11-14T22:40:18.736Z,9.10
2018-11-14T22:42:52.296Z,9.20
2018-11-14T22:45:28.008Z,9.30
2018-11-14T22:48:01.543Z,9.30
2018-11-14T22:50:35.079Z,9.30
2018-11-14T22:53:08.592Z,9.30
2018-11-14T22:55:42.102Z,9.10
2018-11-14T22:58:15.759Z,9.10
2018-11-14T23:00:49.356Z,9.10
2018-11-14T23:03:22.915Z,9.10
2018-11-14T23:05:56.455Z,9.10
2018-11-14T23:08:29.891Z,9.20
2018-11-14T23:11:03.512Z,9.20
2018-11-14T23:13:37.064Z,9.20
2018-11-14T23:16:10.591Z,9.30
2018-11-14T23:18:44.833Z,9.20
2018-11-14T23:21:18.134Z,9.10
2018-11-14T23:23:51.667Z,9.10
2018-11-14T23:26:25.170Z,9.00
2018-11-14T23:28:59.165Z,9.10
2018-11-14T23:31:32.619Z,9.10
2018-11-14T23:34:06.153Z,9.20
2018-11-14T23:36:39.806Z,9.10
2018-11-14T23:39:13.726Z,9.20
2018-11-14T23:41:47.217Z,9.20
2018-11-14T23:44:20.838Z,9.00
2018-11-14T23:46:54.515Z,9.00
2018-11-14T23:49:27.967Z,9.00
2018-11-14T23:52:01.584Z,9.00
2018-11-14T23:54:34.879Z,9.00
2018-11-14T23:57:08.423Z,8.90
2018-11-14T23:59:41.868Z,8.90
